Time;durP1;ratioP1;P1;durP2;ratioP2;P2;SDS_P1;SDS_P2;PMS_P1;PMS_P2;Temp;Humidity;BMP_temperature;BMP_pressure;BME280_temperature;BME280_humidity;BME280_pressure;Samples;Min_cycle;Max_cycle;Signal;HPM_P1;HPM_P2
2021/11/29 07:23:59;;;;;;;;;12.00;11.25;;;;;2.49;67.79;100927.06;5927356;23;46008;-82
2021/11/29 07:26:25;;;;;;;;;16.25;14.25;;;;;2.45;67.90;100920.72;4915858;28;45454;-83
2021/11/29 07:28:50;;;;;;;;;19.50;15.75;;;;;2.50;67.90;100925.38;4905904;28;45456;-82
2021/11/29 07:31:16;;;;;;;;;14.50;14.50;;;;;2.56;67.66;100933.63;4914055;28;47163;-82
2021/11/29 07:33:41;;;;;;;;;15.00;13.25;;;;;2.54;67.58;100924.84;4916328;28;45625;-88
2021/11/29 07:36:08;;;;;;;;;12.00;12.00;;;;;2.55;68.04;100927.53;4896917;28;47744;-86
2021/11/29 07:38:33;;;;;;;;;12.50;12.00;;;;;2.57;67.87;100932.88;4914130;28;45324;-86
2021/11/29 07:40:59;;;;;;;;;13.50;12.50;;;;;2.59;67.60;100935.56;4912201;28;45358;-87
2021/11/29 07:43:24;;;;;;;;;20.50;17.75;;;;;2.67;67.31;100948.38;4913344;28;45616;-87
2021/11/29 07:45:49;;;;;;;;;20.50;14.50;;;;;2.67;67.45;100945.78;4915646;28;45524;-88
2021/11/29 07:48:16;;;;;;;;;27.75;22.00;;;;;2.75;67.85;100943.81;4912031;28;45337;-87
2021/11/29 07:50:41;;;;;;;;;37.25;28.00;;;;;2.86;67.38;100947.25;4891354;28;45842;-86
2021/11/29 07:53:07;;;;;;;;;38.00;33.00;;;;;2.95;67.49;100959.13;4910656;28;45849;-87
2021/11/29 07:55:32;;;;;;;;;24.50;22.50;;;;;2.98;67.53;100959.38;4912358;28;46681;-85
2021/11/29 07:58:00;;;;;;;;;31.50;27.00;;;;;3.03;66.70;100963.25;4922174;28;45381;-86
2021/11/29 08:00:28;;;;;;;;;26.25;18.50;;;;;3.04;66.89;100951.19;4895504;28;45431;-86
2021/11/29 08:02:56;;;;;;;;;18.00;15.50;;;;;3.06;66.93;100963.50;4917967;28;45289;-86
2021/11/29 08:05:24;;;;;;;;;21.75;16.25;;;;;3.08;67.29;100974.00;4900552;28;46175;-86
2021/11/29 08:07:50;;;;;;;;;18.00;17.75;;;;;3.10;67.20;100981.13;4915758;28;45550;-86
2021/11/29 08:10:17;;;;;;;;;16.00;12.00;;;;;3.08;67.24;100974.91;4912281;28;45335;-86
2021/11/29 08:12:42;;;;;;;;;19.00;16.75;;;;;3.11;66.98;100982.03;4895782;28;45500;-86
2021/11/29 08:15:09;;;;;;;;;12.50;12.00;;;;;3.15;67.04;100989.25;4893531;28;49529;-86
2021/11/29 08:17:34;;;;;;;;;14.25;13.75;;;;;3.11;67.23;100985.53;4916371;28;45516;-86
2021/11/29 08:20:00;;;;;;;;;16.25;14.75;;;;;3.17;67.08;101003.25;4902848;28;45423;-85
2021/11/29 08:22:25;;;;;;;;;16.75;13.00;;;;;3.16;67.18;100993.69;4902834;28;45460;-86
2021/11/29 08:24:51;;;;;;;;;13.00;11.75;;;;;3.17;67.00;100992.00;4906005;29;47054;-86
2021/11/29 08:27:16;;;;;;;;;16.25;14.25;;;;;3.19;67.10;101004.31;4912857;28;45468;-86
2021/11/29 08:29:41;;;;;;;;;14.75;14.75;;;;;3.18;66.96;101002.47;4898152;28;45439;-86
2021/11/29 08:32:07;;;;;;;;;16.25;15.75;;;;;3.20;67.36;101006.09;4914639;28;45329;-86
2021/11/29 08:34:34;;;;;;;;;16.00;15.00;;;;;3.20;67.00;101013.88;4898609;28;46526;-86
2021/11/29 08:36:59;;;;;;;;;15.75;14.50;;;;;3.17;67.19;101012.75;4899083;28;45550;-87
2021/11/29 08:39:24;;;;;;;;;17.25;15.00;;;;;3.18;67.14;101010.25;4916563;28;45829;-86
2021/11/29 08:41:50;;;;;;;;;20.50;18.50;;;;;3.19;66.86;101022.47;4899791;28;45528;-86
2021/11/29 08:44:15;;;;;;;;;20.00;17.00;;;;;3.20;66.72;101015.56;4915060;28;45689;-88
2021/11/29 08:46:48;;;;;;;;;23.00;16.50;;;;;3.19;66.98;101013.78;4915641;28;45495;-87
2021/11/29 08:49:18;;;;;;;;;17.75;16.50;;;;;3.20;66.91;101018.16;4917245;28;45431;-85
2021/11/29 08:51:44;;;;;;;;;21.00;21.00;;;;;3.26;67.22;101026.44;4900271;28;45683;-87
2021/11/29 08:54:11;;;;;;;;;24.75;19.00;;;;;3.33;66.95;101028.72;4927175;28;46040;-86
2021/11/29 08:56:36;;;;;;;;;18.25;15.50;;;;;3.32;67.04;101021.75;4904066;28;45531;-86
2021/11/29 08:59:02;;;;;;;;;17.75;16.75;;;;;3.37;67.36;101028.97;4911548;28;45494;-87
2021/11/29 09:01:28;;;;;;;;;20.25;17.25;;;;;3.42;67.09;101031.16;4920669;28;45445;-86
2021/11/29 09:03:53;;;;;;;;;16.00;15.50;;;;;3.46;67.26;101041.00;4902912;28;47432;-87
2021/11/29 09:06:19;;;;;;;;;18.00;16.50;;;;;3.50;66.86;101036.97;4913683;28;45859;-86
2021/11/29 09:08:44;;;;;;;;;25.00;17.25;;;;;3.57;67.20;101040.94;4913003;28;45434;-86
2021/11/29 09:11:10;;;;;;;;;19.50;17.50;;;;;3.57;66.91;101041.84;4905746;28;45670;-87
2021/11/29 09:13:36;;;;;;;;;19.00;15.00;;;;;3.65;67.14;101047.66;4894453;28;47106;-87
2021/11/29 09:16:05;;;;;;;;;16.25;14.75;;;;;3.62;67.12;101046.47;4919465;28;45931;-87
2021/11/29 09:18:31;;;;;;;;;24.25;19.25;;;;;3.70;67.00;101055.78;4895343;28;45515;-87
2021/11/29 09:20:58;;;;;;;;;18.75;18.25;;;;;3.75;67.17;101070.03;4907908;28;45427;-87
2021/11/29 09:23:24;;;;;;;;;22.50;15.50;;;;;3.74;66.72;101057.81;4905153;28;47139;-87
2021/11/29 09:25:49;;;;;;;;;19.25;18.00;;;;;3.78;67.14;101059.00;4910510;28;45435;-87
2021/11/29 09:28:15;;;;;;;;;21.00;18.25;;;;;3.86;67.28;101067.38;4899270;28;46055;-88
2021/11/29 09:30:43;;;;;;;;;23.25;20.75;;;;;3.89;67.15;101067.63;4905035;28;45322;-88
2021/11/29 09:33:09;;;;;;;;;19.75;16.00;;;;;3.89;67.02;101062.44;4902060;28;48024;-88
2021/11/29 09:35:35;;;;;;;;;16.25;14.50;;;;;4.00;66.86;101069.34;4904888;28;45495;-87
2021/11/29 09:38:01;;;;;;;;;19.75;19.75;;;;;4.07;67.25;101085.41;4910071;28;45467;-87
2021/11/29 09:40:33;;;;;;;;;19.75;19.25;;;;;4.06;67.11;101071.50;4891194;28;46534;-87
2021/11/29 09:43:00;;;;;;;;;22.25;18.25;;;;;4.13;67.24;101080.69;4909199;28;45686;-88
2021/11/29 09:45:27;;;;;;;;;25.75;20.00;;;;;4.19;67.33;101077.66;4882794;28;46214;-87
2021/11/29 09:47:52;;;;;;;;;22.75;18.50;;;;;4.23;67.20;101070.19;4900701;28;45462;-87
2021/11/29 09:50:19;;;;;;;;;19.00;17.25;;;;;4.30;67.10;101078.47;4896886;28;45396;-88
2021/11/29 09:52:44;;;;;;;;;16.75;13.00;;;;;4.35;67.33;101091.06;4908563;28;51928;-87
2021/11/29 09:55:12;;;;;;;;;23.25;13.50;;;;;4.36;66.55;101087.66;4908734;28;45406;-87
2021/11/29 09:57:41;;;;;;;;;20.50;17.25;;;;;4.47;67.13;101101.47;4915389;28;45464;-87
2021/11/29 10:00:22;;;;;;;;;15.75;15.00;;;;;4.49;67.00;101100.66;4892638;28;45455;-87
2021/11/29 10:02:49;;;;;;;;;15.75;14.00;;;;;4.55;67.13;101101.13;4910785;28;47496;-87
2021/11/29 10:05:15;;;;;;;;;21.75;18.75;;;;;4.58;66.55;101094.47;4904150;28;45348;-87
2021/11/29 10:07:49;;;;;;;;;18.75;15.75;;;;;4.66;66.92;101096.75;4903962;28;45448;-87
2021/11/29 10:10:29;;;;;;;;;19.25;18.50;;;;;4.73;66.73;101109.41;4910288;28;45273;-89
2021/11/29 10:13:02;;;;;;;;;21.25;18.25;;;;;4.76;66.66;101104.47;4902862;28;47195;-87
2021/11/29 10:15:31;;;;;;;;;20.00;15.25;;;;;4.86;66.59;101116.44;4902477;28;45381;-88
2021/11/29 10:18:09;;;;;;;;;23.75;19.00;;;;;4.91;66.79;101111.59;4910290;28;45354;-87
2021/11/29 10:21:06;;;;;;;;;18.50;14.25;;;;;4.94;66.67;101119.63;4905194;28;45515;-88
2021/11/29 10:23:39;;;;;;;;;22.50;18.25;;;;;5.00;66.56;101121.78;4898292;28;48333;-88
2021/11/29 10:26:16;;;;;;;;;22.50;15.50;;;;;5.05;66.37;101123.00;4911938;28;45520;-88
2021/11/29 10:28:44;;;;;;;;;19.25;18.75;;;;;5.09;65.81;101116.34;4907628;28;45617;-88
2021/11/29 10:31:20;;;;;;;;;18.00;15.25;;;;;5.16;66.29;101113.38;4915263;28;45567;-87
2021/11/29 10:33:57;;;;;;;;;21.25;17.25;;;;;5.21;66.32;101111.13;4901503;28;45463;-88
2021/11/29 10:36:26;;;;;;;;;18.75;16.75;;;;;5.23;66.01;101126.06;4904507;28;45387;-87
2021/11/29 10:38:57;;;;;;;;;18.25;15.75;;;;;5.27;65.96;101108.97;4904603;28;45558;-87
2021/11/29 10:41:27;;;;;;;;;20.75;17.75;;;;;5.30;65.66;101121.31;4903462;28;45452;-88
2021/11/29 10:43:53;;;;;;;;;15.25;15.00;;;;;5.43;65.34;101117.91;4907052;28;47596;-88
2021/11/29 10:46:26;;;;;;;;;19.25;16.25;;;;;5.45;65.64;101122.44;4895868;28;45578;-88
2021/11/29 10:48:53;;;;;;;;;18.50;17.00;;;;;5.52;66.01;101115.03;4906970;28;46199;-88
2021/11/29 10:51:22;;;;;;;;;14.00;13.75;;;;;5.63;65.71;101127.16;4901942;28;45708;-88
2021/11/29 10:53:52;;;;;;;;;17.00;14.50;;;;;5.66;65.46;101111.75;4907248;28;48141;-88
2021/11/29 10:56:18;;;;;;;;;15.00;14.50;;;;;5.73;65.42;101123.50;4891914;28;45475;-88
2021/11/29 10:58:47;;;;;;;;;18.00;14.25;;;;;5.83;65.43;101130.25;4910975;28;45728;-94
2021/11/29 11:01:16;;;;;;;;;15.25;11.00;;;;;5.91;65.54;101123.00;4915408;28;46054;-90
2021/11/29 11:03:49;;;;;;;;;14.75;13.50;;;;;6.07;64.88;101126.66;4912280;28;47454;-87
2021/11/29 11:06:14;;;;;;;;;20.00;12.25;;;;;6.17;65.66;101125.63;4902184;28;45376;-89
2021/11/29 11:08:39;;;;;;;;;15.75;14.00;;;;;6.26;65.04;101134.13;4898015;28;45925;-87
2021/11/29 11:11:31;;;;;;;;;15.75;13.25;;;;;6.44;64.79;101136.19;4910950;28;57357;-88
2021/11/29 11:13:57;;;;;;;;;13.75;13.00;;;;;6.56;64.74;101136.09;4911592;28;46682;-89
2021/11/29 11:16:49;;;;;;;;;15.00;15.00;;;;;6.51;64.39;101135.81;4910657;28;45544;-88
2021/11/29 11:19:24;;;;;;;;;11.00;10.00;;;;;6.50;63.83;101136.59;4895959;28;45805;-86
2021/11/29 11:21:50;;;;;;;;;13.25;12.00;;;;;6.42;64.10;101129.94;4914254;28;45680;-88
2021/11/29 11:24:28;;;;;;;;;11.50;11.25;;;;;6.40;64.14;101132.44;4912547;28;46364;-88
2021/11/29 11:26:56;;;;;;;;;13.25;11.25;;;;;6.38;64.30;101131.44;4908125;28;45514;-87
2021/11/29 11:29:36;;;;;;;;;11.75;11.25;;;;;6.37;63.53;101140.97;4907922;28;46973;-87
2021/11/29 11:32:13;;;;;;;;;15.75;14.00;;;;;6.38;64.19;101139.28;4910923;28;45759;-86
2021/11/29 11:34:42;;;;;;;;;14.00;14.00;;;;;6.35;63.26;101136.44;4910366;28;46455;-85
2021/11/29 11:37:08;;;;;;;;;12.50;11.25;;;;;6.40;63.65;101135.06;4911791;28;45611;-85
2021/11/29 11:39:33;;;;;;;;;13.25;11.00;;;;;6.44;63.79;101141.41;4908838;28;45495;-88
2021/11/29 11:41:59;;;;;;;;;16.00;10.75;;;;;6.42;63.24;101137.75;4894744;28;46027;-88
2021/11/29 11:44:25;;;;;;;;;11.25;10.50;;;;;6.48;63.96;101139.09;4912895;28;46121;-88
2021/11/29 11:46:53;;;;;;;;;13.25;13.25;;;;;6.52;63.67;101149.75;4910479;28;45493;-88
2021/11/29 11:49:19;;;;;;;;;10.75;10.25;;;;;6.52;63.95;101147.16;4911488;28;45330;-88
2021/11/29 11:51:45;;;;;;;;;15.25;13.00;;;;;6.55;63.96;101149.94;4894356;29;45597;-88
2021/11/29 11:54:11;;;;;;;;;18.00;10.75;;;;;6.56;64.03;101143.94;4882675;29;48262;-87
2021/11/29 11:56:36;;;;;;;;;15.50;13.50;;;;;6.64;63.05;101154.91;4900076;28;45830;-87
2021/11/29 11:59:13;;;;;;;;;16.25;11.75;;;;;6.78;64.35;101161.03;4919180;28;45476;-87
2021/11/29 12:01:42;;;;;;;;;10.25;8.75;;;;;6.93;63.17;101155.97;4920706;28;45450;-87
2021/11/29 12:04:16;;;;;;;;;16.75;15.00;;;;;7.03;63.29;101163.63;4924905;28;47317;-88
2021/11/29 12:06:44;;;;;;;;;11.25;11.00;;;;;7.14;63.13;101155.56;4916349;28;45304;-88
2021/11/29 12:09:13;;;;;;;;;14.75;12.00;;;;;7.28;63.21;101164.31;4901262;28;45528;-88
2021/11/29 12:11:43;;;;;;;;;12.00;11.00;;;;;7.40;62.33;101165.91;4903200;28;45762;-87
2021/11/29 12:14:20;;;;;;;;;13.50;13.50;;;;;7.47;61.83;101163.78;4911255;28;48086;-88
2021/11/29 12:17:01;;;;;;;;;9.00;9.00;;;;;7.51;61.93;101161.38;4928606;28;45532;-88
2021/11/29 12:19:27;;;;;;;;;10.75;7.50;;;;;7.55;61.94;101160.78;4903693;28;45518;-88
2021/11/29 12:21:58;;;;;;;;;8.00;6.00;;;;;7.55;61.89;101166.03;4924617;28;45682;-88
2021/11/29 12:24:28;;;;;;;;;8.00;7.25;;;;;7.49;61.97;101159.59;4894596;28;48785;-88
2021/11/29 12:26:58;;;;;;;;;6.00;6.00;;;;;7.43;61.83;101169.63;4895184;28;46081;-88
2021/11/29 12:29:23;;;;;;;;;7.25;6.25;;;;;7.40;61.81;101171.13;4902266;28;46231;-87
2021/11/29 12:32:10;;;;;;;;;7.25;7.25;;;;;7.44;61.87;101186.22;4888862;28;45458;-88
2021/11/29 12:34:51;;;;;;;;;6.00;5.50;;;;;7.47;61.73;101182.06;4905186;28;48468;-88
2021/11/29 12:37:22;;;;;;;;;9.50;6.75;;;;;7.63;62.25;101175.22;4916467;28;45531;-86
2021/11/29 12:40:00;;;;;;;;;6.33;5.33;;;;;7.78;61.95;101171.81;4914761;28;45334;-85
2021/11/29 12:42:26;;;;;;;;;6.00;4.33;;;;;7.95;61.41;101172.88;4905364;28;45234;-87
2021/11/29 12:45:03;;;;;;;;;5.33;5.00;;;;;8.05;61.07;101176.97;4904628;28;45547;-88
2021/11/29 12:47:32;;;;;;;;;2.67;2.67;;;;;7.98;60.76;101172.16;4893140;28;45661;-87
2021/11/29 12:50:25;;;;;;;;;6.67;5.33;;;;;7.85;60.71;101162.63;4893191;28;45963;-87
2021/11/29 12:53:05;;;;;;;;;3.00;3.00;;;;;7.80;61.25;101165.88;4903511;28;45551;-87
2021/11/29 12:55:30;;;;;;;;;7.67;5.33;;;;;7.80;61.12;101173.72;4910009;28;45583;-86
2021/11/29 12:58:11;;;;;;;;;5.33;4.33;;;;;7.75;60.76;101167.28;4911863;28;45377;-87
2021/11/29 13:00:42;;;;;;;;;3.67;3.67;;;;;7.65;61.33;101152.75;4912110;28;45866;-87
2021/11/29 13:03:10;;;;;;;;;3.00;1.00;;;;;7.62;61.35;101165.59;4894863;28;45491;-88
2021/11/29 13:05:39;;;;;;;;;2.33;2.33;;;;;7.54;60.91;101166.81;4894314;28;47216;-87
2021/11/29 13:08:18;;;;;;;;;3.33;3.33;;;;;7.49;60.30;101171.75;4899499;28;45479;-88
2021/11/29 13:11:07;;;;;;;;;6.33;3.00;;;;;7.38;60.29;101171.94;4907554;28;45433;-88
2021/11/29 13:13:41;;;;;;;;;3.33;3.33;;;;;7.31;60.28;101174.97;4895754;28;46008;-87
2021/11/29 13:16:09;;;;;;;;;6.67;3.00;;;;;7.29;60.69;101180.88;4893302;28;48399;-87
2021/11/29 13:21:17;;;;;;;;;2.33;2.33;;;;;7.24;60.45;101175.38;4912364;28;45551;-87
2021/11/29 13:23:44;;;;;;;;;4.33;4.33;;;;;7.21;60.57;101180.38;4911735;28;45514;-87
2021/11/29 13:26:10;;;;;;;;;5.75;5.00;;;;;7.21;60.53;101190.81;4895053;28;47337;-87
2021/11/29 13:28:36;;;;;;;;;4.25;4.25;;;;;7.19;60.76;101184.59;4901258;28;45436;-88
2021/11/29 13:31:01;;;;;;;;;8.00;5.33;;;;;7.21;60.69;101190.81;4913643;28;45467;-87
2021/11/29 13:33:27;;;;;;;;;7.33;5.33;;;;;7.19;60.46;101190.72;4901440;28;46295;-88
2021/11/29 13:36:00;;;;;;;;;6.50;6.25;;;;;7.20;60.47;101199.44;4897701;28;46238;-87
2021/11/29 13:38:25;;;;;;;;;4.67;4.00;;;;;7.20;60.89;101195.13;4898232;28;45605;-88
2021/11/29 13:40:52;;;;;;;;;3.00;3.00;;;;;7.17;60.20;101196.63;4916469;28;46041;-87
2021/11/29 13:43:28;;;;;;;;;6.00;4.67;;;;;7.18;60.81;101199.38;4898926;28;45935;-87
2021/11/29 13:45:54;;;;;;;;;3.00;3.00;;;;;7.19;60.74;101200.28;4896119;28;47180;-88
2021/11/29 13:48:24;;;;;;;;;3.33;3.00;;;;;7.12;61.14;101202.47;4911582;28;49190;-88
2021/11/29 13:50:54;;;;;;;;;3.67;2.67;;;;;7.13;60.76;101214.72;4896815;28;45548;-87
2021/11/29 13:53:33;;;;;;;;;6.75;6.00;;;;;7.12;60.80;101209.38;4898738;28;52301;-87
2021/11/29 13:55:59;;;;;;;;;6.00;4.25;;;;;7.11;60.68;101218.03;4893392;28;48270;-86
2021/11/29 13:58:29;;;;;;;;;2.00;2.00;;;;;7.12;60.14;101215.50;4909350;28;45855;-86
2021/11/29 14:01:06;;;;;;;;;6.00;5.33;;;;;7.09;59.98;101219.59;4899796;28;45692;-86
2021/11/29 14:03:46;;;;;;;;;2.33;2.33;;;;;7.06;60.01;101222.03;4913764;28;45591;-87
2021/11/29 14:06:14;;;;;;;;;3.33;3.33;;;;;7.07;59.99;101219.53;4911624;28;45547;-87
2021/11/29 14:08:42;;;;;;;;;7.00;4.67;;;;;7.08;60.43;101223.03;4909990;28;45445;-87
2021/11/29 14:11:19;;;;;;;;;4.50;4.50;;;;;7.08;60.58;101217.81;4906060;28;46009;-87
2021/11/29 14:13:54;;;;;;;;;5.33;3.00;;;;;7.07;60.34;101219.53;4911924;28;45425;-85
2021/11/29 14:16:30;;;;;;;;;4.33;4.00;;;;;7.10;60.59;101232.78;4910707;28;46347;-85
2021/11/29 14:18:55;;;;;;;;;5.33;4.33;;;;;7.10;61.04;101226.66;4919043;28;45317;-87
2021/11/29 14:21:26;;;;;;;;;2.33;1.33;;;;;7.09;61.19;101230.06;4906014;28;45453;-87
2021/11/29 14:23:57;;;;;;;;;7.00;4.25;;;;;7.14;60.91;101233.88;4914301;28;45560;-87
2021/11/29 14:26:26;;;;;;;;;3.33;3.00;;;;;7.15;60.18;101235.69;4896728;28;48218;-86
2021/11/29 14:28:52;;;;;;;;;7.00;4.00;;;;;7.08;59.98;101242.22;4906851;28;45564;-86
2021/11/29 14:31:17;;;;;;;;;7.00;3.67;;;;;7.09;60.80;101253.53;4895173;28;45510;-87
2021/11/29 14:33:43;;;;;;;;;5.75;3.50;;;;;7.07;61.15;101253.47;4921776;28;45437;-86
2021/11/29 14:36:27;;;;;;;;;5.67;5.00;;;;;7.05;61.49;101255.06;4915568;28;46161;-87
2021/11/29 14:38:53;;;;;;;;;4.33;4.33;;;;;6.99;61.08;101255.53;4913532;28;45835;-86
2021/11/29 14:41:18;;;;;;;;;3.00;3.00;;;;;7.00;61.57;101259.06;4896304;28;45867;-87
2021/11/29 14:43:56;;;;;;;;;5.33;3.00;;;;;6.97;61.22;101254.53;4892037;28;45565;-86
2021/11/29 14:46:34;;;;;;;;;2.00;2.00;;;;;6.97;61.91;101272.81;4908337;28;47204;-87
2021/11/29 14:49:27;;;;;;;;;3.00;3.00;;;;;6.94;61.84;101267.38;4919776;28;45443;-86
2021/11/29 14:52:14;;;;;;;;;3.00;3.00;;;;;6.91;61.24;101267.16;4890602;28;45524;-87
2021/11/29 14:54:41;;;;;;;;;6.00;3.67;;;;;6.88;61.08;101270.47;4901639;28;45683;-86
2021/11/29 14:57:17;;;;;;;;;3.00;2.33;;;;;6.85;61.73;101264.16;4909080;28;46147;-86
2021/11/29 14:59:43;;;;;;;;;4.67;4.67;;;;;6.87;61.13;101284.31;4905360;28;45373;-87
2021/11/29 15:02:11;;;;;;;;;7.00;4.00;;;;;6.85;61.50;101287.63;4898437;28;45597;-86
2021/11/29 15:04:39;;;;;;;;;12.25;8.00;;;;;6.83;61.78;101284.91;4905827;28;45725;-87
2021/11/29 15:07:20;;;;;;;;;8.00;8.00;;;;;6.82;61.86;101288.31;4898584;28;47378;-87
2021/11/29 15:09:59;;;;;;;;;7.25;7.25;;;;;6.82;61.25;101290.94;4911227;28;45623;-87
2021/11/29 15:12:36;;;;;;;;;7.25;7.25;;;;;6.81;61.99;101284.81;4893743;28;45837;-88
2021/11/29 15:15:15;;;;;;;;;7.00;7.00;;;;;6.79;60.89;101285.50;4910960;28;45873;-87
2021/11/29 15:17:46;;;;;;;;;4.33;4.33;;;;;6.83;61.23;101295.34;4908226;28;46385;-85
2021/11/29 15:20:17;;;;;;;;;7.75;6.50;;;;;6.79;61.40;101288.09;4913233;28;45599;-87
2021/11/29 15:22:53;;;;;;;;;8.00;7.00;;;;;6.78;61.54;101289.81;4894602;28;45607;-87
2021/11/29 15:25:26;;;;;;;;;7.00;7.00;;;;;6.82;61.75;101297.06;4892386;28;45286;-87
2021/11/29 15:27:52;;;;;;;;;6.00;3.67;;;;;6.82;61.53;101298.75;4903102;28;47341;-86
2021/11/29 15:30:27;;;;;;;;;7.00;5.33;;;;;6.81;61.68;101304.75;4913485;28;45648;-86
2021/11/29 15:32:55;;;;;;;;;3.33;3.00;;;;;6.79;61.06;101302.06;4895341;28;45905;-88
2021/11/29 15:35:23;;;;;;;;;4.00;3.00;;;;;6.78;61.48;101300.25;4897942;28;45466;-86
2021/11/29 15:38:04;;;;;;;;;6.33;4.67;;;;;6.74;61.73;101305.13;4896839;28;48648;-87
2021/11/29 15:40:39;;;;;;;;;7.50;6.50;;;;;6.72;61.66;101310.25;4909585;28;45756;-88
2021/11/29 15:43:09;;;;;;;;;9.00;7.50;;;;;6.68;61.88;101316.97;4912622;28;45852;-87
2021/11/29 15:45:42;;;;;;;;;7.75;7.75;;;;;6.65;62.04;101321.94;4900681;28;45871;-87
2021/11/29 15:48:08;;;;;;;;;8.33;7.00;;;;;6.57;62.00;101310.97;4893896;28;47914;-87
2021/11/29 15:50:33;;;;;;;;;7.75;6.25;;;;;6.59;62.27;101317.22;4915313;28;45518;-87
2021/11/29 15:52:59;;;;;;;;;8.00;5.33;;;;;6.57;62.36;101326.63;4894295;28;45430;-87
2021/11/29 15:55:25;;;;;;;;;6.00;6.00;;;;;6.52;62.39;101324.50;4909622;28;45515;-86
2021/11/29 15:57:50;;;;;;;;;9.00;6.00;;;;;6.47;62.26;101335.50;4902406;28;48234;-87
2021/11/29 16:00:16;;;;;;;;;7.00;7.00;;;;;6.50;62.89;101344.31;4903005;28;45677;-87
2021/11/29 16:02:41;;;;;;;;;7.50;7.00;;;;;6.49;62.67;101340.84;4894829;28;45508;-87
2021/11/29 16:05:07;;;;;;;;;8.50;8.50;;;;;6.45;62.85;101337.09;4896148;28;45620;-87
2021/11/29 16:07:32;;;;;;;;;7.00;6.00;;;;;6.42;62.47;101330.75;4894169;28;47720;-86
2021/11/29 16:09:57;;;;;;;;;9.00;9.00;;;;;6.41;63.12;101332.47;4916271;28;45644;-88
2021/11/29 16:12:23;;;;;;;;;13.25;7.25;;;;;6.37;62.86;101336.53;4894254;28;45732;-88
2021/11/29 16:14:48;;;;;;;;;11.75;11.00;;;;;6.40;62.60;101345.38;4903577;28;45577;-88
2021/11/29 16:17:13;;;;;;;;;16.75;13.75;;;;;6.35;63.00;101342.44;4892648;28;48564;-87
2021/11/29 16:19:39;;;;;;;;;24.25;19.50;;;;;6.35;62.78;101347.66;4909286;28;45446;-87
2021/11/29 16:22:04;;;;;;;;;16.00;14.25;;;;;6.30;62.95;101347.31;4919060;28;45415;-87
2021/11/29 16:24:30;;;;;;;;;18.75;16.25;;;;;6.28;62.98;101351.53;4911246;28;45738;-86
2021/11/29 16:27:03;;;;;;;;;29.00;24.50;;;;;6.27;62.95;101352.31;4913050;28;50224;-87
2021/11/29 16:29:29;;;;;;;;;30.75;27.25;;;;;6.28;63.01;101361.97;4906155;28;45702;-86
2021/11/29 16:31:54;;;;;;;;;26.00;23.50;;;;;6.22;62.82;101351.06;4897871;28;45640;-86
2021/11/29 16:34:20;;;;;;;;;21.50;19.00;;;;;6.21;63.25;101359.72;4909727;28;45439;-87
2021/11/29 16:36:45;;;;;;;;;22.75;21.25;;;;;6.16;63.39;101351.53;4917780;28;48173;-87
2021/11/29 16:39:10;;;;;;;;;22.50;22.50;;;;;6.20;62.92;101374.44;4914464;28;45715;-88
2021/11/29 16:41:36;;;;;;;;;28.00;24.50;;;;;6.19;62.55;101376.91;4900529;28;45524;-88
2021/11/29 16:44:01;;;;;;;;;20.25;19.00;;;;;6.16;63.05;101380.19;4910898;28;46497;-88
2021/11/29 16:46:26;;;;;;;;;22.75;21.25;;;;;6.11;63.28;101376.34;4899888;28;46987;-88
2021/11/29 16:48:55;;;;;;;;;28.75;21.75;;;;;6.09;63.19;101394.50;4915015;28;51107;-88
2021/11/29 16:51:21;;;;;;;;;22.25;18.75;;;;;6.09;63.65;101397.09;4898091;28;45400;-87
2021/11/29 16:53:49;;;;;;;;;26.75;21.50;;;;;6.09;63.49;101396.19;4914288;28;45428;-87
2021/11/29 16:56:14;;;;;;;;;19.00;16.50;;;;;6.03;63.19;101394.03;4910166;28;45450;-87
2021/11/29 16:58:42;;;;;;;;;22.00;20.75;;;;;6.04;63.35;101401.03;4905472;28;45463;-87
2021/11/29 17:01:08;;;;;;;;;19.25;19.25;;;;;6.02;62.86;101400.00;4911457;28;45357;-87
2021/11/29 17:03:33;;;;;;;;;18.25;16.00;;;;;6.04;63.33;101416.66;4897147;28;45408;-88
2021/11/29 17:05:59;;;;;;;;;17.25;15.75;;;;;5.99;63.15;101408.50;4902245;28;46079;-88
2021/11/29 17:08:25;;;;;;;;;19.00;16.75;;;;;5.99;63.32;101413.72;4918645;28;45648;-87
2021/11/29 17:10:55;;;;;;;;;20.50;17.00;;;;;5.96;63.11;101412.56;4901075;28;45530;-88
2021/11/29 17:13:20;;;;;;;;;20.00;19.50;;;;;5.94;63.31;101412.47;4914584;28;45679;-87
2021/11/29 17:15:45;;;;;;;;;20.50;18.50;;;;;5.90;63.10;101410.44;4903796;28;46994;-87
2021/11/29 17:18:11;;;;;;;;;19.00;18.75;;;;;5.89;63.00;101421.63;4920570;28;46694;-87
2021/11/29 17:20:36;;;;;;;;;18.50;15.75;;;;;5.92;63.58;101427.09;4897229;28;45735;-87
2021/11/29 17:23:03;;;;;;;;;18.00;15.25;;;;;5.86;62.97;101429.22;4915681;28;45642;-88
2021/11/29 17:25:29;;;;;;;;;21.25;19.75;;;;;5.88;62.87;101435.44;4918304;28;45582;-88
2021/11/29 17:27:55;;;;;;;;;18.50;16.00;;;;;5.84;62.48;101434.31;4919214;28;45328;-88
2021/11/29 17:30:20;;;;;;;;;18.25;18.25;;;;;5.80;62.97;101440.06;4904124;28;45717;-88
2021/11/29 17:32:47;;;;;;;;;21.25;19.25;;;;;5.84;62.98;101444.75;4897217;28;45592;-88
2021/11/29 17:35:14;;;;;;;;;19.00;16.25;;;;;5.80;62.71;101438.38;4894627;28;47260;-88
2021/11/29 17:37:40;;;;;;;;;12.00;11.50;;;;;5.79;62.85;101444.41;4911629;28;45792;-88
2021/11/29 17:40:06;;;;;;;;;19.50;16.50;;;;;5.79;62.97;101448.69;4907101;28;46148;-88
2021/11/29 17:42:32;;;;;;;;;21.00;19.50;;;;;5.77;62.81;101450.28;4905986;28;45265;-89
2021/11/29 17:44:58;;;;;;;;;22.50;17.00;;;;;5.74;62.63;101450.97;4898586;28;47326;-88
2021/11/29 17:47:23;;;;;;;;;23.00;20.25;;;;;5.72;62.92;101459.44;4895874;28;45559;-88
2021/11/29 17:49:49;;;;;;;;;19.00;17.00;;;;;5.69;63.06;101454.91;4909178;28;45502;-89
2021/11/29 17:52:15;;;;;;;;;15.00;11.75;;;;;5.67;62.49;101470.41;4924693;28;45399;-87
2021/11/29 17:54:41;;;;;;;;;17.00;12.50;;;;;5.72;63.00;101472.47;4923557;28;47020;-86
2021/11/29 17:57:07;;;;;;;;;16.50;12.00;;;;;5.68;62.50;101467.00;4899448;28;45760;-87
2021/11/29 17:59:32;;;;;;;;;15.00;14.00;;;;;5.57;62.90;101455.75;4913439;28;45539;-87
2021/11/29 18:01:58;;;;;;;;;15.00;14.25;;;;;5.61;62.83;101464.72;4915332;28;45498;-88
2021/11/29 18:04:23;;;;;;;;;15.50;13.50;;;;;5.63;62.70;101472.66;4913135;28;46300;-88
2021/11/29 18:14:25;;;;;;;;;17.75;14.00;;;;;5.55;62.81;101470.38;4912845;28;45962;-88
2021/11/29 18:16:56;;;;;;;;;19.00;16.50;;;;;5.57;62.88;101479.19;4895874;28;45840;-88
2021/11/29 18:19:25;;;;;;;;;19.25;16.25;;;;;5.55;63.09;101482.47;4899354;28;45812;-88
2021/11/29 18:21:50;;;;;;;;;21.50;15.00;;;;;5.54;63.15;101483.28;4913685;28;45428;-88
2021/11/29 18:24:16;;;;;;;;;14.50;12.75;;;;;5.46;62.67;101474.88;4913633;28;45819;-88
2021/11/29 18:26:44;;;;;;;;;14.50;13.00;;;;;5.50;63.26;101482.13;4907958;28;45585;-88
2021/11/29 18:29:09;;;;;;;;;11.25;11.25;;;;;5.47;63.20;101476.66;4893184;28;45432;-88
2021/11/29 18:31:35;;;;;;;;;17.50;13.50;;;;;5.48;63.33;101482.00;4907769;28;45395;-88
2021/11/29 18:34:00;;;;;;;;;15.75;14.75;;;;;5.45;63.14;101473.97;4914501;28;46772;-88
2021/11/29 18:36:26;;;;;;;;;15.25;14.25;;;;;5.46;63.59;101472.25;4908301;28;45477;-88
2021/11/29 18:38:53;;;;;;;;;14.00;14.00;;;;;5.41;63.42;101465.78;4898598;28;45722;-88
2021/11/29 18:41:19;;;;;;;;;10.75;10.75;;;;;5.43;63.41;101480.75;4920437;28;45539;-88
2021/11/29 18:43:44;;;;;;;;;14.75;12.50;;;;;5.40;63.47;101476.97;4914851;28;45407;-88
2021/11/29 18:46:10;;;;;;;;;15.00;14.50;;;;;5.39;63.55;101485.56;4918404;28;45642;-90
2021/11/29 18:48:35;;;;;;;;;14.00;14.00;;;;;5.36;63.25;101483.66;4913995;28;45523;-88
2021/11/29 18:51:01;;;;;;;;;11.50;11.50;;;;;5.38;63.37;101488.97;4916213;28;45325;-87
2021/11/29 18:53:27;;;;;;;;;13.00;13.00;;;;;5.37;63.47;101493.28;4916161;28;45582;-87
2021/11/29 18:55:53;;;;;;;;;11.25;10.25;;;;;5.34;63.30;101495.63;4916192;28;45494;-87
2021/11/29 18:58:19;;;;;;;;;11.00;11.00;;;;;5.32;63.53;101505.94;4916065;28;45514;-88
2021/11/29 19:00:54;;;;;;;;;14.00;11.75;;;;;5.29;63.04;101495.25;4922200;28;45473;-89
2021/11/29 19:03:23;;;;;;;;;13.50;12.25;;;;;5.24;63.55;101488.78;4899326;28;47672;-87